IBE6545 LEMD-TJSJ
Flight info
| Callsign | IBE6545 |
|---|---|
| Flight time | N/A |
| Altitude | 31000 |
| Route | BARDI DCT GUNTI/M079F360 DCT 38N020W 34N030W/M079F380 29N040W 25N050W DCT RKDIA/M079F400 DCT DAWIN/N0460F400 DCT SAALR SAALR2 |
| Aircraft | A343/H-SDE2E3FGHIJ4J5M1RWXY/LB1D1 |
Departure
| Time | 2026-05-05 17:53 |
|---|---|
| Airport | Adolfo Suárez Madrid–Barajas Airport (LEMD) |
Arrival
| Time | N/A |
|---|---|
| Airport | Luis Munoz Marin International Airport (TJSJ) |
| Time | Latitude | Longitude | Altitude | Speed | Heading |
|---|---|---|---|---|---|
| 2026-05-05 17:23 | 40.49356 | -3.56866 | 1981 ft | 0 kts | 90° |
| 2026-05-05 17:43 | 40.49356 | -3.56876 | 1976 ft | 4 kts | 90° |
| 2026-05-05 17:43 | 40.49357 | -3.56912 | 1980 ft | 4 kts | 96° |
| 2026-05-05 17:43 | 40.49361 | -3.56947 | 1978 ft | 4 kts | 103° |
| 2026-05-05 17:44 | 40.49369 | -3.56980 | 1980 ft | 4 kts | 121° |
| 2026-05-05 17:44 | 40.49385 | -3.57002 | 1980 ft | 3 kts | 174° |
| 2026-05-05 17:44 | 40.49388 | -3.57002 | 1980 ft | 0 kts | 180° |
| 2026-05-05 17:48 | 40.49370 | -3.57002 | 1980 ft | 5 kts | 179° |
| 2026-05-05 17:48 | 40.49337 | -3.57002 | 1979 ft | 4 kts | 182° |
| 2026-05-05 17:48 | 40.49314 | -3.57008 | 1983 ft | 2 kts | 198° |
| 2026-05-05 17:49 | 40.49297 | -3.57025 | 1986 ft | 4 kts | 225° |
| 2026-05-05 17:49 | 40.49287 | -3.57072 | 1987 ft | 5 kts | 268° |
| 2026-05-05 17:49 | 40.49287 | -3.57107 | 1985 ft | 4 kts | 270° |
| 2026-05-05 17:49 | 40.49288 | -3.57155 | 1983 ft | 7 kts | 270° |
| 2026-05-05 17:50 | 40.49266 | -3.57217 | 1988 ft | 7 kts | 213° |
| 2026-05-05 17:50 | 40.49231 | -3.57229 | 1989 ft | 3 kts | 192° |
| 2026-05-05 17:50 | 40.49210 | -3.57237 | 1990 ft | 5 kts | 199° |
| 2026-05-05 17:50 | 40.49182 | -3.57290 | 1990 ft | 8 kts | 256° |
| 2026-05-05 17:51 | 40.49178 | -3.57366 | 1988 ft | 8 kts | 268° |
| 2026-05-05 17:51 | 40.49189 | -3.57428 | 1991 ft | 6 kts | 304° |
| 2026-05-05 17:51 | 40.49221 | -3.57453 | 1992 ft | 6 kts | 339° |
| 2026-05-05 17:51 | 40.49270 | -3.57455 | 1989 ft | 10 kts | 2° |
| 2026-05-05 17:52 | 40.49482 | -3.57451 | 1991 ft | 55 kts | 360° |
| 2026-05-05 17:52 | 40.50028 | -3.57458 | 1993 ft | 100 kts | 360° |
| 2026-05-05 17:52 | 40.50858 | -3.57464 | 2000 ft | 137 kts | 359° |
| 2026-05-05 17:52 | 40.51923 | -3.57471 | 2006 ft | 168 kts | 359° |
| 2026-05-05 17:53 | 40.53109 | -3.57485 | 2409 ft | 166 kts | 353° |
| 2026-05-05 17:53 | 40.54250 | -3.57510 | 2893 ft | 165 kts | 354° |
| 2026-05-05 17:53 | 40.55412 | -3.57615 | 3212 ft | 177 kts | 346° |
| 2026-05-05 17:53 | 40.56480 | -3.58539 | 3459 ft | 194 kts | 308° |
| 2026-05-05 17:54 | 40.57342 | -3.59977 | 3901 ft | 204 kts | 309° |
| 2026-05-05 17:54 | 40.58293 | -3.61330 | 4625 ft | 204 kts | 316° |
| 2026-05-05 17:54 | 40.59379 | -3.62595 | 5263 ft | 211 kts | 317° |
| 2026-05-05 17:54 | 40.60480 | -3.63864 | 6036 ft | 210 kts | 318° |
| 2026-05-05 17:55 | 40.61589 | -3.65124 | 6719 ft | 211 kts | 318° |
| 2026-05-05 17:55 | 40.62714 | -3.66398 | 7339 ft | 214 kts | 316° |
| 2026-05-05 17:55 | 40.63659 | -3.67935 | 7871 ft | 218 kts | 296° |
| 2026-05-05 17:55 | 40.64053 | -3.69887 | 8366 ft | 229 kts | 274° |
| 2026-05-05 17:56 | 40.64071 | -3.72047 | 8660 ft | 248 kts | 269° |
| 2026-05-05 17:56 | 40.64009 | -3.74401 | 9176 ft | 258 kts | 269° |
| 2026-05-05 17:56 | 40.63949 | -3.76757 | 9766 ft | 265 kts | 268° |
| 2026-05-05 17:56 | 40.63896 | -3.79210 | 10302 ft | 272 kts | 269° |
| 2026-05-05 17:57 | 40.63848 | -3.81774 | 10589 ft | 288 kts | 269° |
| 2026-05-05 17:57 | 40.63802 | -3.84476 | 10872 ft | 302 kts | 269° |
| 2026-05-05 17:57 | 40.63755 | -3.87311 | 11135 ft | 317 kts | 269° |
| 2026-05-05 17:57 | 40.63706 | -3.90259 | 11560 ft | 325 kts | 269° |
| 2026-05-05 17:58 | 40.63656 | -3.93269 | 11930 ft | 335 kts | 269° |
| 2026-05-05 17:58 | 40.63603 | -3.96369 | 12484 ft | 339 kts | 269° |
| 2026-05-05 17:58 | 40.63550 | -3.99512 | 12905 ft | 348 kts | 269° |
| 2026-05-05 17:58 | 40.63493 | -4.02704 | 13014 ft | 347 kts | 270° |
| 2026-05-05 17:59 | 40.63436 | -4.05874 | 13031 ft | 346 kts | 270° |
| 2026-05-05 17:59 | 40.63380 | -4.08989 | 13409 ft | 345 kts | 270° |
| 2026-05-05 17:59 | 40.63323 | -4.12209 | 13901 ft | 350 kts | 270° |
| 2026-05-05 17:59 | 40.63265 | -4.15381 | 14454 ft | 352 kts | 270° |
| 2026-05-05 18:00 | 40.63207 | -4.18625 | 14948 ft | 357 kts | 270° |
| 2026-05-05 18:00 | 40.63146 | -4.21896 | 15570 ft | 357 kts | 270° |
| 2026-05-05 18:00 | 40.63082 | -4.25172 | 16187 ft | 359 kts | 270° |
| 2026-05-05 18:00 | 40.63017 | -4.28457 | 16799 ft | 360 kts | 270° |
| 2026-05-05 18:01 | 40.62951 | -4.31768 | 17291 ft | 364 kts | 270° |
| 2026-05-05 18:01 | 40.62883 | -4.35119 | 17805 ft | 368 kts | 270° |
| 2026-05-05 18:01 | 40.62814 | -4.38495 | 18341 ft | 370 kts | 270° |
| 2026-05-05 18:01 | 40.62745 | -4.41882 | 18878 ft | 370 kts | 270° |
| 2026-05-05 18:02 | 40.62674 | -4.45265 | 19498 ft | 368 kts | 270° |
| 2026-05-05 18:02 | 40.62601 | -4.48624 | 20161 ft | 366 kts | 270° |
| 2026-05-05 18:02 | 40.62379 | -4.51956 | 20777 ft | 366 kts | 263° |
| 2026-05-05 18:02 | 40.61735 | -4.55167 | 21373 ft | 370 kts | 253° |
| 2026-05-05 18:03 | 40.60574 | -4.58257 | 21918 ft | 376 kts | 243° |
| 2026-05-05 18:03 | 40.59063 | -4.61100 | 22386 ft | 381 kts | 240° |
| 2026-05-05 18:03 | 40.57479 | -4.63866 | 22870 ft | 383 kts | 239° |
| 2026-05-05 18:03 | 40.55871 | -4.66660 | 23353 ft | 384 kts | 240° |
| 2026-05-05 18:04 | 40.54262 | -4.69465 | 23782 ft | 385 kts | 240° |
| 2026-05-05 18:04 | 40.52650 | -4.72282 | 24138 ft | 386 kts | 240° |
| 2026-05-05 18:04 | 40.51033 | -4.75113 | 24491 ft | 388 kts | 240° |
| 2026-05-05 18:04 | 40.49957 | -4.76999 | 24715 ft | 390 kts | 240° |
| 2026-05-05 18:05 | 40.48328 | -4.79857 | 25056 ft | 391 kts | 240° |
| 2026-05-05 18:05 | 40.46827 | -4.82813 | 25401 ft | 388 kts | 246° |
| 2026-05-05 18:05 | 40.45676 | -4.85990 | 25752 ft | 382 kts | 255° |
| 2026-05-05 18:05 | 40.44795 | -4.90430 | 26156 ft | 379 kts | 265° |
| 2026-05-05 18:06 | 40.44634 | -4.92753 | 26363 ft | 378 kts | 270° |
| 2026-05-05 18:06 | 40.44662 | -4.95032 | 26578 ft | 378 kts | 275° |
| 2026-05-05 18:06 | 40.45077 | -4.99604 | 26775 ft | 384 kts | 278° |
| 2026-05-05 18:06 | 40.45464 | -5.03097 | 27058 ft | 387 kts | 278° |
| 2026-05-05 18:07 | 40.45851 | -5.06605 | 27382 ft | 388 kts | 278° |
| 2026-05-05 18:07 | 40.46233 | -5.10124 | 27669 ft | 390 kts | 278° |
| 2026-05-05 18:07 | 40.46611 | -5.13654 | 27991 ft | 391 kts | 278° |
| 2026-05-05 18:07 | 40.46988 | -5.17192 | 28290 ft | 392 kts | 278° |
| 2026-05-05 18:08 | 40.47364 | -5.20750 | 28574 ft | 394 kts | 278° |
| 2026-05-05 18:08 | 40.47741 | -5.24326 | 28841 ft | 396 kts | 278° |
| 2026-05-05 18:08 | 40.48117 | -5.27911 | 29143 ft | 397 kts | 277° |
| 2026-05-05 18:08 | 40.48493 | -5.31509 | 29436 ft | 399 kts | 277° |
| 2026-05-05 18:09 | 40.48869 | -5.35122 | 29617 ft | 401 kts | 277° |
| 2026-05-05 18:09 | 40.49243 | -5.38730 | 29720 ft | 406 kts | 277° |
| 2026-05-05 18:09 | 40.49624 | -5.42415 | 29956 ft | 407 kts | 277° |
| 2026-05-05 18:09 | 40.50006 | -5.46119 | 30203 ft | 408 kts | 277° |
| 2026-05-05 18:10 | 40.50387 | -5.49824 | 30404 ft | 410 kts | 277° |
| 2026-05-05 18:10 | 40.50770 | -5.53552 | 30585 ft | 412 kts | 277° |
| 2026-05-05 18:10 | 40.51152 | -5.57291 | 30780 ft | 414 kts | 277° |
| 2026-05-05 18:10 | 40.51534 | -5.61046 | 30970 ft | 415 kts | 277° |
| 2026-05-05 18:11 | 40.51915 | -5.64808 | 31213 ft | 415 kts | 277° |
| 2026-05-05 18:11 | 40.52292 | -5.68534 | 31457 ft | 415 kts | 277° |
| 2026-05-05 18:11 | 40.52671 | -5.72300 | 31688 ft | 415 kts | 277° |
| 2026-05-05 18:11 | 40.53050 | -5.76070 | 31842 ft | 418 kts | 277° |
| 2026-05-05 18:12 | 40.53430 | -5.79864 | 32057 ft | 418 kts | 277° |
| 2026-05-05 18:12 | 40.53807 | -5.83648 | 32331 ft | 417 kts | 277° |
| 2026-05-05 18:12 | 40.54184 | -5.87432 | 32583 ft | 417 kts | 277° |
| 2026-05-05 18:12 | 40.54558 | -5.91211 | 32808 ft | 417 kts | 277° |
| 2026-05-05 18:13 | 40.54932 | -5.94994 | 33052 ft | 417 kts | 277° |
| 2026-05-05 18:13 | 40.55305 | -5.98780 | 33260 ft | 417 kts | 277° |
| 2026-05-05 18:13 | 40.55677 | -6.02567 | 33463 ft | 417 kts | 277° |
| 2026-05-05 18:13 | 40.56047 | -6.06351 | 33659 ft | 417 kts | 277° |
| 2026-05-05 18:14 | 40.56416 | -6.10147 | 33863 ft | 417 kts | 277° |
| 2026-05-05 18:14 | 40.56783 | -6.13928 | 34046 ft | 417 kts | 277° |
| 2026-05-05 18:14 | 40.57150 | -6.17722 | 34226 ft | 417 kts | 277° |
| 2026-05-05 18:14 | 40.57511 | -6.21463 | 34395 ft | 417 kts | 277° |
| 2026-05-05 18:15 | 40.57875 | -6.25259 | 34571 ft | 417 kts | 276° |
| 2026-05-05 18:15 | 40.58099 | -6.29055 | 34728 ft | 417 kts | 270° |
| 2026-05-05 18:15 | 40.57941 | -6.32866 | 34899 ft | 417 kts | 263° |
| 2026-05-05 18:15 | 40.57503 | -6.36655 | 35068 ft | 417 kts | 261° |
| 2026-05-05 18:16 | 40.56990 | -6.40419 | 35225 ft | 418 kts | 261° |
| 2026-05-05 18:16 | 40.56452 | -6.44118 | 35374 ft | 418 kts | 260° |
| 2026-05-05 18:16 | 40.55891 | -6.47870 | 35534 ft | 418 kts | 260° |
| 2026-05-05 18:17 | 40.54773 | -6.55405 | 35724 ft | 420 kts | 260° |
| 2026-05-05 18:17 | 40.54223 | -6.59178 | 35884 ft | 420 kts | 258° |
| 2026-05-05 18:17 | 40.53645 | -6.62940 | 35984 ft | 420 kts | 258° |
| 2026-05-05 18:18 | 40.52500 | -6.70461 | 36000 ft | 417 kts | 259° |
| 2026-05-05 18:18 | 40.51421 | -6.77939 | 36001 ft | 416 kts | 260° |
| 2026-05-05 18:19 | 40.50346 | -6.85419 | 35995 ft | 416 kts | 259° |
| 2026-05-05 18:19 | 40.49272 | -6.92855 | 36004 ft | 416 kts | 260° |
| 2026-05-05 18:20 | 40.48195 | -7.00328 | 36008 ft | 416 kts | 260° |
| 2026-05-05 18:20 | 40.47102 | -7.07786 | 36007 ft | 416 kts | 260° |
| 2026-05-05 18:21 | 40.45996 | -7.15238 | 36009 ft | 416 kts | 260° |
| 2026-05-05 18:21 | 40.44884 | -7.22691 | 36001 ft | 416 kts | 259° |
| 2026-05-05 18:22 | 40.43764 | -7.30133 | 36012 ft | 416 kts | 259° |
| 2026-05-05 18:22 | 40.42639 | -7.37571 | 36013 ft | 416 kts | 259° |
| 2026-05-05 18:23 | 40.41512 | -7.45020 | 36021 ft | 416 kts | 259° |
| 2026-05-05 18:23 | 40.40390 | -7.52411 | 36022 ft | 416 kts | 259° |
| 2026-05-05 18:24 | 40.39256 | -7.59854 | 36028 ft | 416 kts | 259° |
| 2026-05-05 18:24 | 40.38115 | -7.67301 | 36031 ft | 416 kts | 259° |
| 2026-05-05 18:25 | 40.36969 | -7.74743 | 36028 ft | 416 kts | 259° |
| 2026-05-05 18:25 | 40.35824 | -7.82142 | 36033 ft | 416 kts | 259° |
| 2026-05-05 18:26 | 40.34669 | -7.89578 | 36035 ft | 416 kts | 259° |
| 2026-05-05 18:26 | 40.33510 | -7.97006 | 36034 ft | 416 kts | 259° |
| 2026-05-05 18:27 | 40.32340 | -8.04453 | 36042 ft | 416 kts | 259° |
| 2026-05-05 18:27 | 40.31177 | -8.11840 | 36041 ft | 416 kts | 259° |
| 2026-05-05 18:28 | 40.29410 | -8.22985 | 36049 ft | 416 kts | 259° |
| 2026-05-05 18:28 | 40.28228 | -8.30413 | 36048 ft | 416 kts | 259° |
| 2026-05-05 18:29 | 40.27050 | -8.37786 | 36054 ft | 416 kts | 259° |
| 2026-05-05 18:29 | 40.25856 | -8.45207 | 36056 ft | 417 kts | 259° |
| 2026-05-05 18:30 | 40.24657 | -8.52637 | 36061 ft | 417 kts | 259° |
| 2026-05-05 18:30 | 40.23455 | -8.60057 | 36062 ft | 417 kts | 259° |
| 2026-05-05 18:31 | 40.22246 | -8.67479 | 36062 ft | 417 kts | 259° |
| 2026-05-05 18:31 | 40.21032 | -8.74899 | 36061 ft | 417 kts | 258° |
| 2026-05-05 18:32 | 40.19821 | -8.82283 | 36068 ft | 418 kts | 258° |
| 2026-05-05 18:32 | 40.18592 | -8.89731 | 36070 ft | 418 kts | 258° |
| 2026-05-05 18:33 | 40.17357 | -8.97171 | 36076 ft | 418 kts | 258° |
| 2026-05-05 18:33 | 40.16125 | -9.04598 | 36073 ft | 418 kts | 258° |
| 2026-05-05 18:34 | 40.14887 | -9.12032 | 36071 ft | 418 kts | 258° |
| 2026-05-05 18:34 | 40.13647 | -9.19420 | 36073 ft | 419 kts | 258° |
| 2026-05-05 18:35 | 40.12391 | -9.26857 | 36081 ft | 419 kts | 258° |
| 2026-05-05 18:35 | 40.11132 | -9.34295 | 36082 ft | 419 kts | 258° |
| 2026-05-05 18:36 | 40.09869 | -9.41736 | 36087 ft | 419 kts | 258° |
| 2026-05-05 18:36 | 40.08604 | -9.49166 | 36083 ft | 419 kts | 258° |
| 2026-05-05 18:37 | 40.07337 | -9.56603 | 36091 ft | 420 kts | 258° |
| 2026-05-05 18:37 | 40.06061 | -9.64046 | 36079 ft | 420 kts | 258° |
| 2026-05-05 18:38 | 40.04778 | -9.71483 | 36087 ft | 420 kts | 258° |
| 2026-05-05 18:38 | 40.03497 | -9.78885 | 36100 ft | 420 kts | 258° |
| 2026-05-05 18:39 | 40.02204 | -9.86326 | 36099 ft | 420 kts | 258° |
| 2026-05-05 18:39 | 40.00904 | -9.93767 | 36098 ft | 421 kts | 258° |
| 2026-05-05 18:40 | 39.99596 | -10.01220 | 36100 ft | 421 kts | 258° |
| 2026-05-05 18:40 | 39.98282 | -10.08668 | 36099 ft | 421 kts | 257° |
| 2026-05-05 18:41 | 39.96972 | -10.16063 | 36105 ft | 421 kts | 257° |
| 2026-05-05 18:41 | 39.95651 | -10.23508 | 36102 ft | 421 kts | 257° |
| 2026-05-05 18:42 | 39.94325 | -10.30958 | 36111 ft | 422 kts | 257° |
| 2026-05-05 18:42 | 39.92988 | -10.38432 | 36112 ft | 422 kts | 257° |